createdAt,value
2019-06-01T00:00:40.002Z,100937.23
2019-06-01T00:01:46.846Z,100938.07
2019-06-01T00:02:55.823Z,100937.81
2019-06-01T00:03:57.897Z,100937.56
2019-06-01T00:05:02.258Z,100940.72
2019-06-01T00:06:08.267Z,100939.63
2019-06-01T00:07:13.429Z,100940.17
2019-06-01T00:08:18.184Z,100936.82
2019-06-01T00:09:22.425Z,100937.66
2019-06-01T00:10:27.299Z,100935.41
2019-06-01T00:11:31.467Z,100938.81
2019-06-01T00:12:39.207Z,100934.89
2019-06-01T00:13:43.577Z,100941.39
2019-06-01T00:14:48.345Z,100936.62
2019-06-01T00:15:52.617Z,100940.62
2019-06-01T00:16:57.397Z,100940.37
2019-06-01T00:18:01.567Z,100944.36
2019-06-01T00:19:06.353Z,100938.43
2019-06-01T00:20:10.592Z,100934.25
2019-06-01T00:21:15.602Z,100940.20
2019-06-01T00:22:19.944Z,100930.61
2019-06-01T00:23:24.771Z,100936.59
2019-06-01T00:24:29.007Z,100936.08
2019-06-01T00:25:33.800Z,100943.16
2019-06-01T00:26:38.190Z,100937.56
2019-06-01T00:27:44.706Z,100933.62
2019-06-01T00:28:50.018Z,100942.13
2019-06-01T00:29:55.764Z,100937.46
2019-06-01T00:31:00.303Z,100937.46
2019-06-01T00:32:05.521Z,100939.13
2019-06-01T00:33:09.756Z,100938.03
2019-06-01T00:34:14.591Z,100938.62
2019-06-01T00:35:18.758Z,100939.80
2019-06-01T00:36:23.508Z,100941.89
2019-06-01T00:37:27.852Z,100941.63
2019-06-01T00:38:32.653Z,100943.05
2019-06-01T00:39:37.019Z,100938.80
2019-06-01T00:40:41.776Z,100947.62
2019-06-01T00:41:46.015Z,100938.41
2019-06-01T00:42:50.855Z,100942.07
2019-06-01T00:43:54.985Z,100944.06
2019-06-01T00:45:00.708Z,100945.48
2019-06-01T00:46:05.032Z,100949.24
2019-06-01T00:47:09.856Z,100943.89
2019-06-01T00:48:14.070Z,100949.56
2019-06-01T00:49:18.851Z,100949.56
2019-06-01T00:50:22.988Z,100949.56
2019-06-01T00:51:27.830Z,100941.95
2019-06-01T00:52:31.991Z,100944.02
2019-06-01T00:53:36.815Z,100942.34
2019-06-01T00:54:41.129Z,100944.85
2019-06-01T00:55:46.053Z,100944.27
2019-06-01T00:56:51.694Z,100941.77
2019-06-01T00:57:56.548Z,100947.11
2019-06-01T00:59:00.768Z,100947.11
2019-06-01T01:00:08.455Z,100949.10
2019-06-01T01:01:12.911Z,100946.53
2019-06-01T01:02:17.650Z,100947.95
2019-06-01T01:03:21.962Z,100946.27
2019-06-01T01:04:26.766Z,100951.09
2019-06-01T01:05:30.919Z,100949.16
2019-06-01T01:06:35.678Z,100946.06
2019-06-01T01:07:39.841Z,100936.76
2019-06-01T01:08:44.874Z,100946.67
2019-06-01T01:09:49.096Z,100940.75
2019-06-01T01:10:55.026Z,100942.74
2019-06-01T01:11:59.431Z,100948.47
2019-06-01T01:13:05.315Z,100939.64
2019-06-01T01:14:09.585Z,100943.83
2019-06-01T01:15:14.563Z,100942.80
2019-06-01T01:16:18.826Z,100939.76
2019-06-01T01:17:23.654Z,100947.98
2019-06-01T01:18:28.057Z,100947.98
2019-06-01T01:19:32.824Z,100947.98
2019-06-01T01:20:38.032Z,100948.83
2019-06-01T01:21:42.821Z,100947.70
2019-06-01T01:22:48.389Z,100944.45
2019-06-01T01:23:54.737Z,100947.55
2019-06-01T01:24:58.996Z,100952.05
2019-06-01T01:26:03.867Z,100946.08
2019-06-01T01:27:07.998Z,100946.66
2019-06-01T01:28:12.852Z,100946.08
2019-06-01T01:29:17.051Z,100946.91
2019-06-01T01:30:21.824Z,100945.23
2019-06-01T01:31:25.996Z,100948.07
2019-06-01T01:32:32.116Z,100950.06
2019-06-01T01:33:36.501Z,100943.56
2019-06-01T01:34:41.615Z,100947.55
2019-06-01T01:35:45.902Z,100946.19
2019-06-01T01:36:52.571Z,100947.08
2019-06-01T01:37:58.748Z,100943.43
2019-06-01T01:39:03.672Z,100948.25
2019-06-01T01:40:08.216Z,100943.75
2019-06-01T01:41:13.053Z,100946.31
2019-06-01T01:42:17.203Z,100946.31
2019-06-01T01:43:22.176Z,100944.38
2019-06-01T01:44:26.348Z,100943.54
2019-06-01T01:45:31.203Z,100948.63
2019-06-01T01:46:35.440Z,100945.27
2019-06-01T01:47:40.194Z,100943.02
2019-06-01T01:48:44.379Z,100940.50
2019-06-01T01:49:50.013Z,100946.16
2019-06-01T01:50:54.513Z,100942.50
2019-06-01T01:51:59.538Z,100935.44
2019-06-01T01:53:04.380Z,100946.23
2019-06-01T01:54:09.194Z,100940.31
2019-06-01T01:55:13.458Z,100938.08
2019-06-01T01:56:18.643Z,100940.65
2019-06-01T01:57:22.868Z,100940.65
2019-06-01T01:58:27.653Z,100934.47
2019-06-01T01:59:31.821Z,100936.77
2019-06-01T02:00:42.877Z,100937.61
2019-06-01T02:01:47.060Z,100933.38
2019-06-01T02:02:51.945Z,100931.70
2019-06-01T02:03:57.418Z,100928.61
2019-06-01T02:05:02.282Z,100934.02
2019-06-01T02:06:07.361Z,100925.84
2019-06-01T02:07:12.393Z,100931.23
2019-06-01T02:08:16.557Z,100934.06
2019-06-01T02:09:21.448Z,100928.72
2019-06-01T02:10:25.684Z,100928.45
2019-06-01T02:11:30.512Z,100927.67
2019-06-01T02:12:34.708Z,100926.54
2019-06-01T02:13:39.462Z,100924.02
2019-06-01T02:14:43.858Z,100922.34
2019-06-01T02:15:48.614Z,100931.09
2019-06-01T02:16:53.950Z,100930.31
2019-06-01T02:17:58.762Z,100924.65
2019-06-01T02:19:02.934Z,100923.55
2019-06-01T02:20:08.186Z,100922.70
2019-06-01T02:21:12.418Z,100925.54
2019-06-01T02:22:17.180Z,100923.28
2019-06-01T02:23:21.484Z,100928.10
2019-06-01T02:24:26.216Z,100923.02
2019-06-01T02:25:31.057Z,100925.02
2019-06-01T02:26:35.951Z,100924.48
2019-06-01T02:27:40.265Z,100923.35
2019-06-01T02:28:45.033Z,100926.75
2019-06-01T02:29:49.210Z,100926.80
2019-06-01T02:30:55.964Z,100922.34
2019-06-01T02:32:01.767Z,100922.09
2019-06-01T02:33:06.645Z,100906.08
2019-06-01T02:34:10.782Z,100915.02
2019-06-01T02:35:15.673Z,100918.20
2019-06-01T02:36:20.016Z,100924.97
2019-06-01T02:37:24.841Z,100922.71
2019-06-01T02:38:29.087Z,100913.97
2019-06-01T02:39:34.825Z,100913.39
2019-06-01T02:40:38.988Z,100922.45
2019-06-01T02:41:44.908Z,100920.16
2019-06-01T02:42:49.624Z,100916.23
2019-06-01T02:43:54.775Z,100921.63
2019-06-01T02:44:59.256Z,100925.60
2019-06-01T02:46:06.634Z,100923.92
2019-06-01T02:47:10.095Z,100919.42
2019-06-01T02:48:15.020Z,100925.34
2019-06-01T02:49:19.255Z,100929.05
2019-06-01T02:50:24.160Z,100920.83
2019-06-01T02:51:28.447Z,100927.06
2019-06-01T02:52:33.437Z,100922.56
2019-06-01T02:53:37.679Z,100923.97
2019-06-01T02:54:42.524Z,100925.70
2019-06-01T02:55:46.684Z,100924.02
2019-06-01T02:56:51.513Z,100925.44
2019-06-01T02:57:56.017Z,100920.09
2019-06-01T02:59:00.801Z,100924.61
2019-06-01T03:00:09.412Z,100924.08
2019-06-01T03:01:23.347Z,100924.39
2019-06-01T03:02:27.521Z,100920.47
2019-06-01T03:03:32.463Z,100919.10
2019-06-01T03:04:36.715Z,100921.66
2019-06-01T03:05:41.423Z,100923.70
2019-06-01T03:06:45.670Z,100917.20
2019-06-01T03:07:50.419Z,100921.72
2019-06-01T03:08:54.707Z,100926.27
2019-06-01T03:10:00.952Z,100928.57
2019-06-01T03:11:06.084Z,100931.97
2019-06-01T03:12:13.639Z,100925.21
2019-06-01T03:13:17.813Z,100928.13
2019-06-01T03:14:24.388Z,100933.22
2019-06-01T03:15:28.711Z,100938.05
2019-06-01T03:16:33.578Z,100934.16
2019-06-01T03:17:37.918Z,100931.06
2019-06-01T03:18:42.687Z,100928.56
2019-06-01T03:19:46.963Z,100929.70
2019-06-01T03:20:51.745Z,100930.81
2019-06-01T03:21:57.452Z,100933.64
2019-06-01T03:23:02.211Z,100929.70
2019-06-01T03:24:08.419Z,100931.69
2019-06-01T03:25:13.733Z,100933.64
2019-06-01T03:26:17.892Z,100935.92
2019-06-01T03:27:23.556Z,100931.11
2019-06-01T03:28:27.753Z,100938.75
2019-06-01T03:29:32.510Z,100931.69
2019-06-01T03:30:45.436Z,100934.51
2019-06-01T03:31:49.048Z,100933.09
2019-06-01T03:32:53.213Z,100934.21
2019-06-01T03:33:59.146Z,100931.96
2019-06-01T03:35:04.650Z,100935.63
2019-06-01T03:36:09.452Z,100931.73
2019-06-01T03:37:13.735Z,100933.15
2019-06-01T03:38:18.494Z,100934.83
2019-06-01T03:39:22.852Z,100932.31
2019-06-01T03:40:27.709Z,100933.72
2019-06-01T03:41:32.197Z,100931.73
2019-06-01T03:42:37.208Z,100928.64
2019-06-01T03:43:41.381Z,100931.73
2019-06-01T03:44:46.404Z,100934.30
2019-06-01T03:45:50.745Z,100934.30
2019-06-01T03:46:55.703Z,100927.54
2019-06-01T03:48:00.525Z,100936.59
2019-06-01T03:49:05.733Z,100936.89
2019-06-01T03:50:10.997Z,100932.97
2019-06-01T03:51:15.808Z,100932.41
2019-06-01T03:52:20.184Z,100931.87
2019-06-01T03:53:24.940Z,100929.66
2019-06-01T03:54:29.185Z,100929.39
2019-06-01T03:55:34.085Z,100928.82
2019-06-01T03:56:38.380Z,100931.38
2019-06-01T03:57:43.247Z,100940.20
2019-06-01T03:58:47.591Z,100941.04
2019-06-01T03:59:52.468Z,100941.63
2019-06-01T04:00:56.686Z,100935.44
2019-06-01T04:02:01.553Z,100935.44
2019-06-01T04:03:05.767Z,100945.59
2019-06-01T04:04:11.283Z,100939.94
2019-06-01T04:05:15.804Z,100935.97
2019-06-01T04:06:20.695Z,100941.09
2019-06-01T04:07:24.868Z,100939.94
2019-06-01T04:08:29.492Z,100947.00
2019-06-01T04:09:34.023Z,100934.02
2019-06-01T04:10:38.777Z,100942.50
2019-06-01T04:11:43.343Z,100939.41
2019-06-01T04:12:48.116Z,100943.03
2019-06-01T04:13:52.646Z,100941.35
2019-06-01T04:14:57.602Z,100940.82
2019-06-01T04:16:01.874Z,100942.50
2019-06-01T04:17:08.021Z,100939.41
2019-06-01T04:18:13.889Z,100930.62
2019-06-01T04:19:19.025Z,100941.35
2019-06-01T04:20:23.140Z,100933.76
2019-06-01T04:21:28.050Z,100939.67
2019-06-01T04:22:32.226Z,100936.31
2019-06-01T04:23:37.186Z,100939.41
2019-06-01T04:24:42.524Z,100936.85
2019-06-01T04:25:47.261Z,100932.34
2019-06-01T04:26:51.566Z,100929.52
2019-06-01T04:27:56.348Z,100932.34
2019-06-01T04:29:02.194Z,100934.02
2019-06-01T04:30:09.431Z,100934.87
2019-06-01T04:31:13.839Z,100927.50
2019-06-01T04:32:18.596Z,100921.58
2019-06-01T04:33:22.844Z,100927.23
2019-06-01T04:34:27.602Z,100900.30
2019-06-01T04:35:31.984Z,100923.00
2019-06-01T04:36:37.771Z,100924.98
2019-06-01T04:37:41.944Z,100928.11
2019-06-01T04:38:46.701Z,100926.97
2019-06-01T04:39:51.080Z,100931.47
2019-06-01T04:40:56.001Z,100921.58
2019-06-01T04:42:00.945Z,100931.77
2019-06-01T04:43:05.810Z,100932.34
2019-06-01T04:44:10.154Z,100938.53
2019-06-01T04:45:14.898Z,100932.88
2019-06-01T04:46:19.565Z,100937.68
2019-06-01T04:47:24.380Z,100940.77
2019-06-01T04:48:28.665Z,100929.13
2019-06-01T04:49:33.420Z,100935.84
2019-06-01T04:50:37.594Z,100933.27
2019-06-01T04:51:42.652Z,100936.05
2019-06-01T04:52:46.892Z,100932.35
2019-06-01T04:53:51.773Z,100931.78
2019-06-01T04:54:55.940Z,100926.39
2019-06-01T04:56:00.806Z,100931.16
2019-06-01T04:57:05.232Z,100938.19
2019-06-01T04:58:11.078Z,100940.16
2019-06-01T04:59:16.723Z,100939.33
2019-06-01T05:00:27.244Z,100940.78
2019-06-01T05:01:27.687Z,100944.45
2019-06-01T05:02:32.598Z,100936.62
2019-06-01T05:03:36.848Z,100942.46
2019-06-01T05:04:43.541Z,100945.52
2019-06-01T05:05:47.581Z,100942.11
2019-06-01T05:06:52.649Z,100941.27
2019-06-01T05:07:56.858Z,100944.89
2019-06-01T05:09:01.617Z,100944.53
2019-06-01T05:10:07.768Z,100942.81
2019-06-01T05:11:13.575Z,100945.61
2019-06-01T05:12:17.876Z,100948.36
2019-06-01T05:13:23.712Z,100943.77
2019-06-01T05:14:28.252Z,100947.72
2019-06-01T05:15:33.115Z,100949.05
2019-06-01T05:16:37.492Z,100951.52
2019-06-01T05:17:42.311Z,100951.77
2019-06-01T05:18:46.553Z,100947.74
2019-06-01T05:19:51.673Z,100953.88
2019-06-01T05:20:55.891Z,100959.20
2019-06-01T05:22:00.871Z,100952.63
2019-06-01T05:23:06.496Z,100951.42
2019-06-01T05:24:12.736Z,100955.87
2019-06-01T05:25:17.261Z,100954.72
2019-06-01T05:26:22.024Z,100954.72
2019-06-01T05:27:26.197Z,100958.38
2019-06-01T05:28:30.948Z,100958.06
2019-06-01T05:29:35.469Z,100955.72
2019-06-01T05:30:40.284Z,100956.29
2019-06-01T05:31:44.784Z,100954.88
2019-06-01T05:32:49.724Z,100964.16
2019-06-01T05:33:53.868Z,100968.06
2019-06-01T05:34:58.746Z,100968.28
2019-06-01T05:36:02.920Z,100964.52
2019-06-01T05:37:08.497Z,100962.23
2019-06-01T05:38:12.694Z,100964.75
2019-06-01T05:39:18.698Z,100971.15
2019-06-01T05:40:23.144Z,100972.23
2019-06-01T05:41:27.900Z,100973.84
2019-06-01T05:42:32.096Z,100970.64
2019-06-01T05:43:38.470Z,100970.30
2019-06-01T05:44:42.700Z,100962.07
2019-06-01T05:45:47.460Z,100969.94
2019-06-01T05:46:52.856Z,100970.14
2019-06-01T05:47:57.619Z,100964.42
2019-06-01T05:49:01.925Z,100965.50
2019-06-01T05:50:10.595Z,100967.12
2019-06-01T05:51:16.827Z,100969.64
2019-06-01T05:52:22.960Z,100969.00
2019-06-01T05:53:27.210Z,100971.49
2019-06-01T05:54:33.486Z,100970.86
2019-06-01T05:55:37.852Z,100975.89
2019-06-01T05:56:42.726Z,100968.75
2019-06-01T05:57:46.902Z,100965.52
2019-06-01T05:58:51.786Z,100965.52
2019-06-01T05:59:56.149Z,100970.55
2019-06-01T06:01:00.930Z,100967.66
2019-06-01T06:02:05.232Z,100971.88
2019-06-01T06:03:14.351Z,100978.84
2019-06-01T06:04:17.531Z,100964.94
2019-06-01T06:05:23.891Z,100969.70
2019-06-01T06:06:28.264Z,100964.81
2019-06-01T06:07:33.032Z,100969.30
2019-06-01T06:08:37.444Z,100967.59
2019-06-01T06:09:42.360Z,100964.64
2019-06-01T06:10:47.424Z,100965.73
2019-06-01T06:11:54.037Z,100964.55
2019-06-01T06:12:58.376Z,100965.64
2019-06-01T06:14:03.132Z,100971.51
2019-06-01T06:15:11.451Z,100968.36
2019-06-01T06:16:17.959Z,100973.35
2019-06-01T06:17:24.291Z,100968.81
2019-06-01T06:18:29.270Z,100978.95
2019-06-01T06:19:33.455Z,100971.23
2019-06-01T06:20:38.257Z,100977.67
2019-06-01T06:21:42.477Z,100971.69
2019-06-01T06:22:47.404Z,100974.42
2019-06-01T06:23:51.708Z,100966.69
2019-06-01T06:24:56.637Z,100972.23
2019-06-01T06:26:02.274Z,100969.55
2019-06-01T06:27:07.030Z,100974.25
2019-06-01T06:28:12.468Z,100967.64
2019-06-01T06:29:17.351Z,100968.99
2019-06-01T06:30:23.029Z,100970.34
2019-06-01T06:31:27.800Z,100969.70
2019-06-01T06:32:31.976Z,100969.91
2019-06-01T06:33:37.083Z,100980.88
2019-06-01T06:34:41.391Z,100976.83
2019-06-01T06:35:46.248Z,100973.02
2019-06-01T06:36:50.471Z,100973.23
2019-06-01T06:37:56.075Z,100972.59
2019-06-01T06:39:00.379Z,100968.84
2019-06-01T06:40:07.265Z,100967.31
2019-06-01T06:41:11.622Z,100972.59
2019-06-01T06:42:16.450Z,100964.84
2019-06-01T06:43:29.701Z,100964.44
2019-06-01T06:44:27.284Z,100961.23
2019-06-01T06:45:33.108Z,100964.58
2019-06-01T06:46:37.969Z,100968.44
2019-06-01T06:47:42.145Z,100962.11
2019-06-01T06:48:46.981Z,100957.80
2019-06-01T06:49:51.263Z,100954.05
2019-06-01T06:50:56.004Z,100957.41
2019-06-01T06:52:00.620Z,100953.65
2019-06-01T06:53:05.481Z,100951.83
2019-06-01T06:54:09.665Z,100959.00
2019-06-01T06:55:15.646Z,100950.73
2019-06-01T06:56:20.000Z,100953.20
2019-06-01T06:57:26.163Z,100953.38
2019-06-01T06:58:30.502Z,100956.65
2019-06-01T06:59:35.324Z,100958.86
2019-06-01T07:00:39.600Z,100952.34
2019-06-01T07:01:44.427Z,100961.05
2019-06-01T07:02:48.660Z,100959.95
2019-06-01T07:03:53.468Z,100959.88
2019-06-01T07:04:57.664Z,100960.13
2019-06-01T07:06:02.423Z,100964.02
2019-06-01T07:07:06.810Z,100958.84
2019-06-01T07:08:11.614Z,100963.89
2019-06-01T07:09:15.779Z,100966.91
2019-06-01T07:10:20.566Z,100964.23
2019-06-01T07:11:25.336Z,100968.13
2019-06-01T07:12:33.363Z,100964.62
2019-06-01T07:13:37.596Z,100970.22
2019-06-01T07:14:42.352Z,100976.00
2019-06-01T07:15:46.543Z,100959.48
2019-06-01T07:16:51.526Z,100966.50
2019-06-01T07:17:55.699Z,100965.50
2019-06-01T07:19:00.452Z,100963.11
2019-06-01T07:20:06.536Z,100963.87
2019-06-01T07:21:11.292Z,100962.53
2019-06-01T07:22:17.044Z,100961.03
2019-06-01T07:23:22.027Z,100969.09
2019-06-01T07:24:26.217Z,100966.08
2019-06-01T07:25:30.972Z,100967.70
2019-06-01T07:26:35.173Z,100970.13
2019-06-01T07:27:40.219Z,100975.76
2019-06-01T07:28:45.585Z,100972.52
2019-06-01T07:29:50.570Z,100970.43
2019-06-01T07:30:54.716Z,100975.95
2019-06-01T07:31:59.472Z,100966.98
2019-06-01T07:33:04.787Z,100968.02
2019-06-01T07:34:09.583Z,100972.45
2019-06-01T07:35:14.520Z,100972.36
2019-06-01T07:36:20.267Z,100969.12
2019-06-01T07:37:24.599Z,100969.95
2019-06-01T07:38:29.593Z,100970.70
2019-06-01T07:39:33.877Z,100964.67
2019-06-01T07:40:38.934Z,100961.40
2019-06-01T07:41:43.471Z,100961.89
2019-06-01T07:42:48.264Z,100960.66
2019-06-01T07:43:52.680Z,100962.00
2019-06-01T07:44:57.477Z,100958.97
2019-06-01T07:46:01.648Z,100962.84
2019-06-01T07:47:06.555Z,100957.64
2019-06-01T07:48:10.720Z,100948.42
2019-06-01T07:49:16.592Z,100959.37
2019-06-01T07:50:21.893Z,100954.98
2019-06-01T07:51:27.419Z,100952.88
2019-06-01T07:52:32.418Z,100948.75
2019-06-01T07:53:37.547Z,100957.98
2019-06-01T07:54:41.726Z,100956.11
2019-06-01T07:55:46.610Z,100955.42
2019-06-01T07:56:51.731Z,100954.19
2019-06-01T07:57:56.480Z,100955.42
2019-06-01T07:59:00.744Z,100948.55
2019-06-01T08:00:07.930Z,100950.95
2019-06-01T08:01:13.791Z,100949.70
2019-06-01T08:02:18.682Z,100954.27
2019-06-01T08:03:26.020Z,100949.07
2019-06-01T08:04:31.767Z,100944.63
2019-06-01T08:05:35.221Z,100950.72
2019-06-01T08:06:46.557Z,100949.44
2019-06-01T08:07:54.515Z,100945.93
2019-06-01T08:09:02.932Z,100940.96
2019-06-01T08:10:10.168Z,100947.16
2019-06-01T08:11:17.684Z,100945.06
2019-06-01T08:12:25.209Z,100945.83
2019-06-01T08:13:35.463Z,100936.83
2019-06-01T08:14:39.870Z,100946.84
2019-06-01T08:15:45.826Z,100943.58
2019-06-01T08:16:52.090Z,100944.55
2019-06-01T08:17:57.276Z,100940.77
2019-06-01T08:19:01.944Z,100941.73
2019-06-01T08:20:07.770Z,100936.55
2019-06-01T08:21:12.152Z,100938.11
2019-06-01T08:22:16.972Z,100934.33
2019-06-01T08:23:21.876Z,100935.64
2019-06-01T08:24:26.796Z,100935.81
2019-06-01T08:25:32.795Z,100934.03
2019-06-01T08:26:39.692Z,100932.15
2019-06-01T08:27:44.020Z,100935.73
2019-06-01T08:28:48.956Z,100929.33
2019-06-01T08:29:53.145Z,100930.33
2019-06-01T08:30:57.998Z,100930.11
2019-06-01T08:32:02.152Z,100920.58
2019-06-01T08:33:07.096Z,100920.58
2019-06-01T08:34:11.505Z,100928.81
2019-06-01T08:35:16.552Z,100924.38
2019-06-01T08:36:20.930Z,100922.14
2019-06-01T08:37:25.618Z,100921.25
2019-06-01T08:38:29.880Z,100915.07
2019-06-01T08:39:34.661Z,100918.22
2019-06-01T08:40:38.831Z,100919.89
2019-06-01T08:41:43.675Z,100923.50
2019-06-01T08:42:47.895Z,100923.22
2019-06-01T08:43:52.715Z,100922.75
2019-06-01T08:44:56.927Z,100924.69
2019-06-01T08:46:01.709Z,100925.65
2019-06-01T08:47:05.967Z,100925.18
2019-06-01T08:48:10.700Z,100924.83
2019-06-01T08:49:14.946Z,100922.37
2019-06-01T08:50:20.274Z,100923.20
2019-06-01T08:51:26.362Z,100928.13
2019-06-01T08:52:32.192Z,100925.30
2019-06-01T08:53:36.634Z,100924.16
2019-06-01T08:54:41.391Z,100920.46
2019-06-01T08:55:45.628Z,100913.32
2019-06-01T08:56:50.222Z,100915.84
2019-06-01T08:57:54.469Z,100914.77
2019-06-01T08:58:59.210Z,100916.56
2019-06-01T09:00:05.844Z,100912.89
2019-06-01T09:01:10.702Z,100918.97
2019-06-01T09:02:15.837Z,100913.03
2019-06-01T09:03:20.596Z,100907.09
2019-06-01T09:04:24.828Z,100907.09
2019-06-01T09:05:31.223Z,100913.16
2019-06-01T09:06:35.766Z,100912.58
2019-06-01T09:07:40.600Z,100918.09
2019-06-01T09:08:44.766Z,100905.56
2019-06-01T09:09:49.577Z,100905.67
2019-06-01T09:10:53.748Z,100904.97
2019-06-01T09:11:58.683Z,100905.68
2019-06-01T09:13:02.858Z,100910.67
2019-06-01T09:14:07.673Z,100907.59
2019-06-01T09:15:12.135Z,100900.78
2019-06-01T09:16:17.108Z,100901.48
2019-06-01T09:17:21.614Z,100897.89
2019-06-01T09:18:27.537Z,100900.89
2019-06-01T09:19:33.565Z,100901.83
2019-06-01T09:20:39.403Z,100896.11
2019-06-01T09:21:43.966Z,100901.70
2019-06-01T09:22:48.775Z,100895.98
2019-06-01T09:23:53.079Z,100898.11
2019-06-01T09:24:57.911Z,100898.48
2019-06-01T09:26:02.080Z,100896.08
2019-06-01T09:27:06.910Z,100892.05
2019-06-01T09:28:11.120Z,100901.94
2019-06-01T09:29:15.880Z,100898.48
2019-06-01T09:30:20.576Z,100893.95
2019-06-01T09:31:26.284Z,100897.74
2019-06-01T09:32:34.309Z,100892.12
2019-06-01T09:33:38.264Z,100890.45
2019-06-01T09:34:42.525Z,100890.55
2019-06-01T09:35:55.528Z,100892.31
2019-06-01T09:36:55.536Z,100889.08
2019-06-01T09:38:00.645Z,100886.70
2019-06-01T09:39:07.403Z,100889.30
2019-06-01T09:40:12.515Z,100892.48
2019-06-01T09:41:16.748Z,100893.45
2019-06-01T09:42:21.688Z,100892.34
2019-06-01T09:43:26.535Z,100891.61
2019-06-01T09:44:31.980Z,100896.62
2019-06-01T09:45:36.777Z,100894.45
2019-06-01T09:46:41.537Z,100893.98
2019-06-01T09:47:46.115Z,100896.70
2019-06-01T09:48:51.199Z,100893.36
2019-06-01T09:49:55.512Z,100902.88
2019-06-01T09:51:00.277Z,100902.00
2019-06-01T09:52:04.764Z,100898.42
2019-06-01T09:53:09.515Z,100899.80
2019-06-01T09:54:13.750Z,100898.46
2019-06-01T09:55:18.552Z,100889.84
2019-06-01T09:56:22.724Z,100893.25
2019-06-01T09:57:27.722Z,100886.73
2019-06-01T09:58:32.297Z,100886.73
2019-06-01T09:59:38.165Z,100891.73
2019-06-01T10:00:43.958Z,100881.92
2019-06-01T10:01:48.977Z,100882.98
2019-06-01T10:02:53.240Z,100883.84
2019-06-01T10:03:58.057Z,100884.91
2019-06-01T10:05:02.345Z,100884.78
2019-06-01T10:06:08.192Z,100882.61
2019-06-01T10:07:12.546Z,100880.42
2019-06-01T10:08:17.347Z,100883.41
2019-06-01T10:09:21.764Z,100877.14
2019-06-01T10:10:26.521Z,100878.66
2019-06-01T10:11:32.496Z,100877.91
2019-06-01T10:12:38.182Z,100877.18
2019-06-01T10:13:42.739Z,100875.83
2019-06-01T10:14:48.504Z,100876.73
2019-06-01T10:15:52.676Z,100868.46
2019-06-01T10:16:57.485Z,100871.86
2019-06-01T10:18:01.652Z,100875.29
2019-06-01T10:19:06.625Z,100871.89
2019-06-01T10:20:11.813Z,100877.33
2019-06-01T10:21:16.571Z,100875.42
2019-06-01T10:22:20.757Z,100873.69
2019-06-01T10:23:25.511Z,100874.81
2019-06-01T10:24:31.088Z,100876.42
2019-06-01T10:25:36.470Z,100879.75
2019-06-01T10:26:41.860Z,100877.16
2019-06-01T10:27:46.657Z,100877.27
2019-06-01T10:28:50.902Z,100872.20
2019-06-01T10:29:55.685Z,100878.77
2019-06-01T10:30:59.935Z,100875.30
2019-06-01T10:32:05.160Z,100871.80
2019-06-01T10:33:09.315Z,100862.96
2019-06-01T10:34:14.077Z,100870.14
2019-06-01T10:35:18.563Z,100869.77
2019-06-01T10:36:23.380Z,100869.64
2019-06-01T10:37:27.726Z,100858.98
2019-06-01T10:38:33.398Z,100867.06
2019-06-01T10:39:37.674Z,100868.56
2019-06-01T10:40:42.465Z,100859.19
2019-06-01T10:41:46.712Z,100856.70
2019-06-01T10:42:51.526Z,100860.17
2019-06-01T10:43:55.687Z,100858.73
2019-06-01T10:45:00.452Z,100863.14
2019-06-01T10:46:04.984Z,100860.56
2019-06-01T10:47:09.735Z,100853.67
2019-06-01T10:48:13.903Z,100852.33
2019-06-01T10:49:19.666Z,100852.61
2019-06-01T10:50:23.929Z,100851.27
2019-06-01T10:51:28.684Z,100851.59
2019-06-01T10:52:36.243Z,100855.13
2019-06-01T10:53:42.443Z,100856.25
2019-06-01T10:54:46.920Z,100846.41
2019-06-01T10:55:51.677Z,100849.83
2019-06-01T10:56:55.873Z,100853.36
2019-06-01T10:58:00.636Z,100850.38
2019-06-01T10:59:05.177Z,100847.22
2019-06-01T11:00:13.207Z,100849.20
2019-06-01T11:01:17.376Z,100846.45
2019-06-01T11:02:22.250Z,100844.08
2019-06-01T11:03:26.420Z,100846.34
2019-06-01T11:04:32.689Z,100843.08
2019-06-01T11:05:36.920Z,100838.00
2019-06-01T11:06:46.476Z,100842.31
2019-06-01T11:07:47.751Z,100843.20
2019-06-01T11:08:52.506Z,100840.27
2019-06-01T11:09:56.695Z,100831.58
2019-06-01T11:11:01.447Z,100840.87
2019-06-01T11:12:05.620Z,100834.96
2019-06-01T11:13:10.407Z,100836.02
2019-06-01T11:14:14.572Z,100836.12
2019-06-01T11:15:19.408Z,100834.53
2019-06-01T11:16:23.586Z,100836.19
2019-06-01T11:17:28.363Z,100835.67
2019-06-01T11:18:33.200Z,100834.84
2019-06-01T11:19:39.372Z,100833.31
2019-06-01T11:20:43.694Z,100835.23
2019-06-01T11:21:48.476Z,100830.37
2019-06-01T11:22:52.649Z,100834.69
2019-06-01T11:23:57.404Z,100829.00
2019-06-01T11:25:01.627Z,100830.22
2019-06-01T11:26:06.424Z,100827.73
2019-06-01T11:27:10.596Z,100817.39
2019-06-01T11:28:15.387Z,100825.95
2019-06-01T11:29:19.927Z,100822.30
2019-06-01T11:30:24.736Z,100827.77
2019-06-01T11:31:28.905Z,100822.99
2019-06-01T11:32:39.475Z,100819.23
2019-06-01T11:33:42.781Z,100822.99
2019-06-01T11:34:47.658Z,100821.84
2019-06-01T11:35:51.949Z,100820.72
2019-06-01T11:37:04.965Z,100823.59
2019-06-01T11:38:02.812Z,100816.16
2019-06-01T11:39:08.060Z,100820.56
2019-06-01T11:40:12.299Z,100815.36
2019-06-01T11:41:18.706Z,100814.23
2019-06-01T11:42:23.074Z,100815.34
2019-06-01T11:43:27.901Z,100817.51
2019-06-01T11:44:32.180Z,100813.34
2019-06-01T11:45:36.937Z,100809.92
2019-06-01T11:46:41.404Z,100806.93
2019-06-01T11:47:46.160Z,100806.09
2019-06-01T11:48:50.520Z,100803.83
2019-06-01T11:49:55.385Z,100800.27
2019-06-01T11:50:59.597Z,100806.32
2019-06-01T11:52:05.472Z,100798.42
2019-06-01T11:53:09.724Z,100795.85
2019-06-01T11:54:14.514Z,100795.91
2019-06-01T11:55:18.770Z,100796.35
2019-06-01T11:56:23.710Z,100785.90
2019-06-01T11:57:28.089Z,100786.28
2019-06-01T11:58:32.912Z,100779.54
2019-06-01T11:59:37.475Z,100785.07
2019-06-01T12:00:43.743Z,100784.30
2019-06-01T12:01:47.923Z,100779.84
2019-06-01T12:02:52.703Z,100777.80
2019-06-01T12:03:56.899Z,100779.51
2019-06-01T12:05:01.730Z,100782.22
2019-06-01T12:06:06.393Z,100778.59
2019-06-01T12:07:17.719Z,100772.70
2019-06-01T12:08:17.120Z,100777.07
2019-06-01T12:09:21.928Z,100772.97
2019-06-01T12:10:26.355Z,100775.19
2019-06-01T12:11:31.206Z,100772.53
2019-06-01T12:12:36.012Z,100770.05
2019-06-01T12:13:41.907Z,100762.86
2019-06-01T12:14:46.858Z,100765.41
2019-06-01T12:15:52.149Z,100761.87
2019-06-01T12:16:56.484Z,100770.55
2019-06-01T12:18:01.254Z,100759.04
2019-06-01T12:19:05.540Z,100759.65
2019-06-01T12:20:10.689Z,100754.15
2019-06-01T12:21:15.832Z,100756.27